TimeCST,TemperatureF,Dew PointF,Humidity,Sea Level PressureIn,VisibilityMPH,Wind Direction,Wind SpeedMPH,Gust SpeedMPH,PrecipitationIn,Events,Conditions,WindDirDegrees,DateUTC
12:47 AM,48.2,48.2,100,30.28,10.0,North,3.5,-,N/A,,Light Drizzle,10,2013-01-25 06:47:00
12:55 AM,48.6,48.6,100,30.28,10.0,North,4.6,-,0.00,,Light Drizzle,10,2013-01-25 06:55:00
1:01 AM,48.2,48.2,100,30.28,10.0,North,3.5,-,N/A,,Clear,10,2013-01-25 07:01:00
1:17 AM,48.2,48.2,100,30.28,10.0,NNE,3.5,-,N/A,,Light Drizzle,20,2013-01-25 07:17:00
1:37 AM,48.2,48.2,100,30.28,10.0,North,4.6,-,N/A,,Scattered Clouds,360,2013-01-25 07:37:00
1:41 AM,48.2,48.2,100,30.28,10.0,North,3.5,-,N/A,,Light Drizzle,360,2013-01-25 07:41:00
1:55 AM,48.2,48.2,100,30.27,10.0,Calm,Calm,-,0.00,,Light Drizzle,0,2013-01-25 07:55:00
2:55 AM,47.1,47.1,100,30.26,10.0,Calm,Calm,-,0.00,,Light Drizzle,0,2013-01-25 08:55:00
3:47 AM,46.4,46.4,100,30.26,10.0,Calm,Calm,-,N/A,,Clear,0,2013-01-25 09:47:00
3:55 AM,46.9,46.9,100,30.26,9.0,Calm,Calm,-,0.00,,Clear,0,2013-01-25 09:55:00
3:59 AM,46.4,46.4,100,30.26,8.0,Calm,Calm,-,N/A,,Clear,0,2013-01-25 09:59:00
4:00 AM,46.4,46.4,100,30.26,8.0,ENE,3.5,-,N/A,,Light Drizzle,60,2013-01-25 10:00:00
4:04 AM,46.4,46.4,100,30.26,8.0,ENE,3.5,-,N/A,,Light Drizzle,60,2013-01-25 10:04:00
4:34 AM,46.4,46.4,100,30.26,10.0,NNE,3.5,-,N/A,,Clear,30,2013-01-25 10:34:00
4:35 AM,46.4,46.4,100,30.26,10.0,NNE,3.5,-,N/A,,Light Drizzle,30,2013-01-25 10:35:00
4:54 AM,44.6,44.6,100,30.27,10.0,North,4.6,-,N/A,,Clear,10,2013-01-25 10:54:00
4:55 AM,44.4,44.4,100,30.27,10.0,North,4.6,-,0.00,,Clear,10,2013-01-25 10:55:00
5:10 AM,44.6,44.6,100,30.27,10.0,NNE,3.5,-,N/A,,Light Drizzle,30,2013-01-25 11:10:00
5:22 AM,44.6,44.6,100,30.27,9.0,ENE,3.5,-,N/A,,Clear,60,2013-01-25 11:22:00
5:31 AM,46.4,46.4,100,30.27,10.0,NE,3.5,-,N/A,,Light Drizzle,40,2013-01-25 11:31:00
5:55 AM,46.9,46.9,100,30.28,9.0,NNE,4.6,-,0.00,,Light Drizzle,20,2013-01-25 11:55:00
5:57 AM,46.4,46.4,100,30.29,9.0,North,4.6,-,N/A,,Light Drizzle,10,2013-01-25 11:57:00
6:05 AM,46.4,46.4,100,30.29,9.0,North,5.8,-,N/A,,Light Drizzle,360,2013-01-25 12:05:00
6:13 AM,44.6,44.6,100,30.29,10.0,North,4.6,-,N/A,,Clear,10,2013-01-25 12:13:00
6:55 AM,44.4,44.4,100,30.30,10.0,North,4.6,-,0.00,,Scattered Clouds,10,2013-01-25 12:55:00
6:56 AM,44.6,44.6,100,30.30,10.0,North,4.6,-,N/A,,Light Drizzle,10,2013-01-25 12:56:00
7:24 AM,46.4,46.4,100,30.30,10.0,NNE,3.5,-,N/A,,Light Drizzle,20,2013-01-25 13:24:00
7:27 AM,48.2,48.2,100,30.30,10.0,NNE,3.5,-,N/A,,Light Drizzle,30,2013-01-25 13:27:00
7:29 AM,48.2,48.2,100,30.30,10.0,NNE,3.5,-,N/A,,Light Drizzle,30,2013-01-25 13:29:00
7:32 AM,48.2,48.2,100,30.30,10.0,NNE,3.5,-,N/A,,Light Drizzle,30,2013-01-25 13:32:00
7:36 AM,48.2,48.2,100,30.30,10.0,NNE,3.5,-,N/A,,Light Drizzle,30,2013-01-25 13:36:00
7:39 AM,48.2,48.2,100,30.30,10.0,Calm,Calm,-,N/A,,Light Drizzle,0,2013-01-25 13:39:00
7:55 AM,50.9,50.9,100,30.31,10.0,North,3.5,-,0.00,,Light Drizzle,10,2013-01-25 13:55:00
8:50 AM,57.2,57.2,100,30.32,10.0,Calm,Calm,-,N/A,,Light Drizzle,0,2013-01-25 14:50:00
8:54 AM,57.2,57.2,100,30.31,10.0,ENE,3.5,-,N/A,,Light Drizzle,60,2013-01-25 14:54:00
8:55 AM,58.1,58.1,100,30.32,10.0,ENE,4.6,-,0.00,,Light Drizzle,60,2013-01-25 14:55:00
9:55 AM,66.4,66.4,100,30.31,10.0,SE,4.6,-,0.00,,Light Drizzle,140,2013-01-25 15:55:00
10:20 AM,68.0,66.2,94,30.31,10.0,Variable,5.8,-,N/A,,Light Drizzle,0,2013-01-25 16:20:00
10:23 AM,68.0,66.2,94,30.31,10.0,SSE,6.9,-,N/A,,Light Drizzle,150,2013-01-25 16:23:00
10:33 AM,68.0,64.4,88,30.30,10.0,South,5.8,-,N/A,,Scattered Clouds,180,2013-01-25 16:33:00
10:45 AM,68.0,64.4,88,30.29,10.0,SSE,8.1,-,N/A,Rain,Light Rain,160,2013-01-25 16:45:00
10:55 AM,67.3,65.3,93,30.28,10.0,SSE,9.2,-,0.00,,Light Drizzle,150,2013-01-25 16:55:00
11:55 AM,64.8,63.9,97,30.25,10.0,SE,10.4,-,0.00,,Clear,140,2013-01-25 17:55:00
12:02 PM,66.2,64.4,94,30.24,10.0,SSE,12.7,-,N/A,,Light Drizzle,150,2013-01-25 18:02:00
12:41 PM,68.0,66.2,94,30.23,10.0,SSE,6.9,-,N/A,,Clear,160,2013-01-25 18:41:00
12:48 PM,68.0,66.2,94,30.23,10.0,SSE,9.2,-,N/A,,Light Drizzle,150,2013-01-25 18:48:00
12:55 PM,67.1,66.2,97,30.23,10.0,South,6.9,-,0.00,,Clear,180,2013-01-25 18:55:00
1:07 PM,68.0,66.2,94,30.23,10.0,SSE,5.8,-,N/A,,Light Drizzle,160,2013-01-25 19:07:00
1:17 PM,68.0,66.2,94,30.22,10.0,SSE,6.9,-,N/A,,Clear,160,2013-01-25 19:17:00
1:25 PM,68.0,66.2,94,30.22,10.0,South,8.1,-,N/A,,Light Drizzle,170,2013-01-25 19:25:00
1:52 PM,68.0,66.2,94,30.21,10.0,South,10.4,-,N/A,,Clear,190,2013-01-25 19:52:00
1:55 PM,69.3,66.4,91,30.21,10.0,South,8.1,-,0.00,,Clear,190,2013-01-25 19:55:00
2:40 PM,69.8,62.6,78,30.22,10.0,SSW,11.5,-,N/A,,Light Drizzle,210,2013-01-25 20:40:00
2:42 PM,69.8,62.6,78,30.22,10.0,SSW,9.2,-,N/A,,Light Drizzle,210,2013-01-25 20:42:00
2:55 PM,68.2,61.9,80,30.22,10.0,SW,9.2,-,0.00,,Light Drizzle,220,2013-01-25 20:55:00
3:01 PM,68.0,62.6,83,30.22,10.0,SW,6.9,-,N/A,,Overcast,220,2013-01-25 21:01:00
3:02 PM,68.0,62.6,83,30.22,10.0,SW,6.9,-,N/A,,Light Drizzle,220,2013-01-25 21:02:00
3:26 PM,68.0,62.6,83,30.21,10.0,SSW,9.2,-,N/A,,Mostly Cloudy,210,2013-01-25 21:26:00
3:36 PM,68.0,62.6,83,30.21,10.0,SW,10.4,-,N/A,,Scattered Clouds,220,2013-01-25 21:36:00
3:40 PM,68.0,62.6,83,30.21,10.0,SSW,9.2,-,N/A,,Light Drizzle,200,2013-01-25 21:40:00
3:55 PM,68.2,62.6,82,30.21,10.0,WSW,5.8,-,0.00,,Light Drizzle,240,2013-01-25 21:55:00
4:55 PM,65.5,61.9,88,30.19,10.0,SSW,4.6,-,0.00,,Light Drizzle,210,2013-01-25 22:55:00
5:38 PM,64.4,62.6,94,30.19,10.0,SW,4.6,-,N/A,,Mostly Cloudy,220,2013-01-25 23:38:00
5:55 PM,64.0,63.3,97,30.19,10.0,SW,3.5,-,0.00,,Mostly Cloudy,220,2013-01-25 23:55:00
6:07 PM,64.4,62.6,94,30.19,10.0,SW,4.6,-,N/A,,Light Drizzle,220,2013-01-26 00:07:00
6:55 PM,63.3,63.3,100,30.19,10.0,SW,4.6,-,0.00,,Light Drizzle,220,2013-01-26 00:55:00
7:30 PM,62.6,62.6,100,30.19,10.0,SSW,4.6,-,N/A,,Clear,210,2013-01-26 01:30:00
7:35 PM,62.6,62.6,100,30.18,10.0,SSW,5.8,-,N/A,,Light Drizzle,210,2013-01-26 01:35:00
7:55 PM,63.7,63.7,100,30.19,10.0,SW,4.6,-,0.00,,Light Drizzle,220,2013-01-26 01:55:00
8:15 PM,64.4,62.6,94,30.19,10.0,WSW,6.9,-,N/A,,Clear,240,2013-01-26 02:15:00
8:17 PM,64.4,62.6,94,30.19,10.0,WSW,5.8,-,N/A,,Light Drizzle,240,2013-01-26 02:17:00
8:55 PM,63.9,63.9,100,30.20,10.0,WSW,6.9,-,0.00,,Light Drizzle,250,2013-01-26 02:55:00
9:05 PM,64.4,64.4,100,30.20,10.0,WSW,6.9,-,N/A,,Clear,240,2013-01-26 03:05:00
9:06 PM,64.4,64.4,100,30.20,10.0,WSW,5.8,-,N/A,,Light Drizzle,250,2013-01-26 03:06:00
9:50 PM,62.6,62.6,100,30.21,10.0,West,3.5,-,N/A,,Clear,270,2013-01-26 03:50:00
9:55 PM,62.8,62.8,100,30.21,10.0,West,3.5,-,0.00,,Clear,270,2013-01-26 03:55:00
10:00 PM,62.6,62.6,100,30.21,10.0,West,3.5,-,N/A,,Light Drizzle,270,2013-01-26 04:00:00
10:06 PM,62.6,62.6,100,30.22,10.0,WNW,3.5,-,N/A,,Light Drizzle,290,2013-01-26 04:06:00
10:15 PM,62.6,62.6,100,30.22,10.0,WNW,4.6,-,N/A,,Mostly Cloudy,290,2013-01-26 04:15:00
10:16 PM,62.6,62.6,100,30.22,10.0,WNW,4.6,-,N/A,,Light Drizzle,290,2013-01-26 04:16:00
10:27 PM,62.6,62.6,100,30.22,10.0,West,3.5,-,N/A,,Mostly Cloudy,270,2013-01-26 04:27:00
10:28 PM,62.6,62.6,100,30.22,10.0,West,3.5,-,N/A,,Light Drizzle,270,2013-01-26 04:28:00
10:31 PM,62.6,62.6,100,30.22,10.0,Calm,Calm,-,N/A,,Light Drizzle,0,2013-01-26 04:31:00
10:38 PM,62.6,62.6,100,30.21,10.0,West,3.5,-,N/A,,Scattered Clouds,270,2013-01-26 04:38:00
10:55 PM,61.5,61.5,100,30.21,10.0,WSW,3.5,-,0.00,,Clear,250,2013-01-26 04:55:00
10:56 PM,60.8,60.8,100,30.21,10.0,WSW,3.5,-,N/A,,Light Drizzle,250,2013-01-26 04:56:00
10:57 PM,60.8,60.8,100,30.21,10.0,WSW,3.5,-,N/A,,Clear,250,2013-01-26 04:57:00
11:00 PM,60.8,60.8,100,30.21,10.0,WSW,4.6,-,N/A,,Light Drizzle,250,2013-01-26 05:00:00
11:36 PM,60.8,60.8,100,30.21,10.0,WSW,3.5,-,N/A,,Clear,240,2013-01-26 05:36:00
11:43 PM,60.8,60.8,100,30.21,10.0,WSW,3.5,-,N/A,,Light Drizzle,240,2013-01-26 05:43:00
11:55 PM,61.3,61.3,100,30.21,10.0,WSW,4.6,-,0.00,,Light Drizzle,250,2013-01-26 05:55:00